Time;durP1;ratioP1;P1;durP2;ratioP2;P2;SDS_P1;SDS_P2;PMS_P1;PMS_P2;Temp;Humidity;BMP_temperature;BMP_pressure;BME280_temperature;BME280_humidity;BME280_pressure;Samples;Min_cycle;Max_cycle;Signal;HPM_P1;HPM_P2
2022/03/24 00:00:38;;;;;;;8.23;4.93;;;;;;;-148.16;100.00;58328.31;5059371;28;20045;-64
2022/03/24 00:03:23;;;;;;;9.55;5.68;;;;;;;-148.16;100.00;58328.31;5036257;28;20045;-64
2022/03/24 00:06:09;;;;;;;9.00;5.32;;;;;;;-148.16;100.00;58328.31;5031788;28;20421;-65
2022/03/24 00:08:53;;;;;;;8.13;4.80;;;;;;;-148.16;100.00;58328.31;5031845;28;20060;-64
2022/03/24 00:11:40;;;;;;;9.48;5.03;;;;;;;-148.16;100.00;58328.31;5031952;28;20500;-65
2022/03/24 00:14:25;;;;;;;11.13;5.38;;;;;;;-148.16;100.00;58328.31;5031376;28;20529;-67
2022/03/24 00:17:10;;;;;;;9.68;5.03;;;;;;;-148.16;100.00;58328.31;5044653;28;20143;-65
2022/03/24 00:19:58;;;;;;;9.63;5.20;;;;;;;-148.16;100.00;58328.31;5030483;28;20425;-63
2022/03/24 00:22:42;;;;;;;9.27;5.32;;;;;;;-148.16;100.00;58328.31;5016384;28;20049;-63
2022/03/24 00:25:28;;;;;;;10.43;4.90;;;;;;;-148.16;100.00;58328.31;5044539;28;20049;-65
2022/03/24 00:28:13;;;;;;;9.55;5.53;;;;;;;-148.16;100.00;58328.31;5031332;28;20053;-65
2022/03/24 00:30:58;;;;;;;11.43;5.32;;;;;;;-148.16;100.00;58328.31;5030196;28;20065;-65
2022/03/24 00:33:43;;;;;;;9.07;5.43;;;;;;;-148.16;100.00;58328.31;5044337;28;20080;-63
2022/03/24 00:36:29;;;;;;;11.32;5.60;;;;;;;-148.16;100.00;58328.31;5031314;28;20144;-64
2022/03/24 00:39:14;;;;;;;11.57;5.57;;;;;;;-148.16;100.00;58328.31;5031269;28;20041;-65
2022/03/24 00:42:02;;;;;;;11.48;6.03;;;;;;;-148.16;100.00;58328.31;5031731;28;20554;-65
2022/03/24 00:44:47;;;;;;;9.80;5.40;;;;;;;-148.16;100.00;58328.31;5016349;28;20087;-63
2022/03/24 00:47:35;;;;;;;12.57;5.68;;;;;;;-148.16;100.00;58328.31;5031494;28;20049;-64
2022/03/24 00:50:19;;;;;;;10.30;5.88;;;;;;;-148.16;100.00;58328.31;5030410;28;20041;-65
2022/03/24 00:53:06;;;;;;;16.17;5.53;;;;;;;-148.16;100.00;58328.31;5017127;28;20084;-63
2022/03/24 00:55:51;;;;;;;8.63;5.38;;;;;;;-148.16;100.00;58328.31;5017469;28;20354;-63
2022/03/24 00:58:38;;;;;;;14.13;5.60;;;;;;;-148.16;100.00;58328.31;5033914;28;20396;-64
2022/03/24 01:01:23;;;;;;;10.20;5.55;;;;;;;-148.16;100.00;58328.31;5031598;28;20674;-64
2022/03/24 01:04:09;;;;;;;12.38;5.78;;;;;;;-148.16;100.00;58328.31;5011358;28;20145;-63
2022/03/24 01:06:55;;;;;;;10.27;5.38;;;;;;;-148.16;100.00;58328.31;5011768;28;20046;-64
2022/03/24 01:09:40;;;;;;;12.43;5.80;;;;;;;-148.16;100.00;58328.31;5011477;28;20053;-65
2022/03/24 01:12:25;;;;;;;10.82;6.40;;;;;;;-148.16;100.00;58328.31;5011361;28;20041;-63
2022/03/24 01:15:14;;;;;;;10.05;5.40;;;;;;;-148.16;100.00;58328.31;5010132;28;20046;-63
2022/03/24 01:18:00;;;;;;;13.55;6.30;;;;;;;-148.16;100.00;58328.31;5010767;28;20041;-65
2022/03/24 01:20:46;;;;;;;9.70;5.60;;;;;;;-148.16;100.00;58328.31;5023937;28;20057;-64
2022/03/24 01:23:32;;;;;;;12.02;6.15;;;;;;;-148.16;100.00;58328.31;5011223;28;20069;-64
2022/03/24 01:26:17;;;;;;;15.40;6.35;;;;;;;-148.16;100.00;58328.31;5023652;28;20041;-63
2022/03/24 01:29:03;;;;;;;10.48;5.90;;;;;;;-148.16;100.00;58328.31;5023646;28;20522;-65
2022/03/24 01:31:48;;;;;;;14.55;6.07;;;;;;;-148.16;100.00;58328.31;5009933;28;20488;-63
2022/03/24 01:34:35;;;;;;;11.65;5.30;;;;;;;-148.16;100.00;58328.31;5014037;28;20080;-66
2022/03/24 01:37:22;;;;;;;10.35;5.95;;;;;;;-148.16;100.00;58328.31;5014146;28;20042;-65
2022/03/24 01:40:11;;;;;;;10.82;5.38;;;;;;;-148.16;100.00;58328.31;5014810;28;20048;-64
2022/03/24 01:42:55;;;;;;;10.48;5.25;;;;;;;-148.16;100.00;58328.31;5013834;28;20038;-64
2022/03/24 01:45:41;;;;;;;11.93;5.95;;;;;;;-148.16;100.00;58328.31;5013925;28;20053;-64
2022/03/24 01:48:30;;;;;;;11.70;6.63;;;;;;;-148.16;100.00;58328.31;5013520;28;20097;-63
2022/03/24 01:51:16;;;;;;;9.30;5.47;;;;;;;-148.16;100.00;58328.31;5027531;28;20053;-64
2022/03/24 01:54:02;;;;;;;13.57;7.30;;;;;;;-148.16;100.00;58328.31;5027530;28;20053;-64
2022/03/24 01:56:48;;;;;;;12.57;6.63;;;;;;;-148.16;100.00;58328.31;5041961;28;20342;-64
2022/03/24 01:59:38;;;;;;;14.95;5.70;;;;;;;-148.16;100.00;58328.31;5034398;28;20049;-64
2022/03/24 02:02:23;;;;;;;10.15;5.85;;;;;;;-148.16;100.00;58328.31;5034322;28;20557;-64
2022/03/24 02:05:10;;;;;;;12.15;6.28;;;;;;;-148.16;100.00;58328.31;5013088;28;20073;-64
2022/03/24 02:07:56;;;;;;;9.05;5.43;;;;;;;-148.16;100.00;58328.31;5013214;28;20042;-64
2022/03/24 02:10:41;;;;;;;10.45;5.70;;;;;;;-148.16;100.00;58328.31;5027132;28;20041;-64
2022/03/24 02:13:27;;;;;;;12.70;5.72;;;;;;;-148.16;100.00;58328.31;5020057;28;20053;-64
2022/03/24 02:16:12;;;;;;;11.15;5.97;;;;;;;-148.16;100.00;58328.31;5019168;28;20046;-64
2022/03/24 02:18:59;;;;;;;11.13;5.43;;;;;;;-148.16;100.00;58328.31;5018838;28;20045;-64
2022/03/24 02:21:45;;;;;;;10.27;5.53;;;;;;;-148.16;100.00;58328.31;5033811;28;20041;-65
2022/03/24 02:24:30;;;;;;;9.77;5.25;;;;;;;-148.16;100.00;58328.31;5032730;28;20045;-63
2022/03/24 02:27:14;;;;;;;11.85;5.22;;;;;;;-148.16;100.00;58328.31;5033973;28;20192;-64
2022/03/24 02:30:03;;;;;;;14.27;5.90;;;;;;;-148.16;100.00;58328.31;5032383;28;20072;-64
2022/03/24 02:32:49;;;;;;;11.00;5.97;;;;;;;-148.16;100.00;58328.31;5033732;28;20128;-63
2022/03/24 02:35:34;;;;;;;15.45;6.20;;;;;;;-148.16;100.00;58328.31;5032786;28;20057;-64
2022/03/24 02:38:22;;;;;;;12.80;5.80;;;;;;;-148.16;100.00;58328.31;5033512;28;20041;-64
2022/03/24 02:41:07;;;;;;;10.60;5.82;;;;;;;-148.16;100.00;58328.31;5032640;28;20056;-62
2022/03/24 02:43:52;;;;;;;10.20;6.05;;;;;;;-148.16;100.00;58328.31;5033415;28;20068;-64
2022/03/24 02:46:36;;;;;;;9.23;5.50;;;;;;;-148.16;100.00;58328.31;5032094;28;20041;-66
2022/03/24 02:49:24;;;;;;;10.13;4.80;;;;;;;-148.16;100.00;58328.31;5032658;28;20101;-65
2022/03/24 02:52:09;;;;;;;12.18;5.28;;;;;;;-148.16;100.00;58328.31;5032928;28;20048;-66
2022/03/24 02:54:55;;;;;;;11.07;5.75;;;;;;;-148.16;100.00;58328.31;5033156;28;20124;-65
2022/03/24 02:57:41;;;;;;;11.32;5.57;;;;;;;-148.16;100.00;58328.31;5033355;28;20504;-65
2022/03/24 03:00:27;;;;;;;9.13;5.45;;;;;;;-148.16;100.00;58328.31;5031912;28;20192;-64
2022/03/24 03:03:12;;;;;;;11.68;5.78;;;;;;;-148.16;100.00;58328.31;5033038;28;20485;-65
2022/03/24 03:05:58;;;;;;;12.50;6.03;;;;;;;-148.16;100.00;58328.31;5032853;28;20045;-65
2022/03/24 03:08:44;;;;;;;9.85;5.30;;;;;;;-148.16;100.00;58328.31;5004595;28;20452;-65
2022/03/24 03:11:33;;;;;;;9.82;5.32;;;;;;;-148.16;100.00;58328.31;5018303;28;20049;-64
2022/03/24 03:14:18;;;;;;;13.60;6.60;;;;;;;-148.16;100.00;58328.31;5032749;28;20072;-65
2022/03/24 03:17:04;;;;;;;11.13;5.80;;;;;;;-148.16;100.00;58328.31;5017803;28;20048;-69
2022/03/24 03:19:49;;;;;;;13.02;6.78;;;;;;;-148.16;100.00;58328.31;5032668;28;20041;-67
2022/03/24 03:22:34;;;;;;;12.38;6.38;;;;;;;-148.16;100.00;58328.31;5031421;28;20103;-67
2022/03/24 03:25:20;;;;;;;10.30;6.13;;;;;;;-148.16;100.00;58328.31;5032822;28;20045;-67
2022/03/24 03:28:07;;;;;;;10.90;6.28;;;;;;;-148.16;100.00;58328.31;5032921;28;20116;-66
2022/03/24 03:30:52;;;;;;;11.38;6.28;;;;;;;-148.16;100.00;58328.31;5017814;28;20037;-67
2022/03/24 03:33:38;;;;;;;11.07;6.63;;;;;;;-148.16;100.00;58328.31;5032658;28;20489;-67
2022/03/24 03:36:23;;;;;;;11.45;5.82;;;;;;;-148.16;100.00;58328.31;5032725;28;20493;-67
2022/03/24 03:39:09;;;;;;;12.07;6.20;;;;;;;-148.16;100.00;58328.31;5031049;28;20740;-63
2022/03/24 03:41:55;;;;;;;13.88;6.88;;;;;;;-148.16;100.00;58328.31;5032647;28;20394;-66
2022/03/24 03:44:40;;;;;;;11.95;6.13;;;;;;;-148.16;100.00;58328.31;5032729;28;20053;-65
2022/03/24 03:47:26;;;;;;;10.07;5.63;;;;;;;-148.16;100.00;58328.31;5017747;28;20095;-66
2022/03/24 03:50:11;;;;;;;15.32;7.32;;;;;;;-148.16;100.00;58328.31;5030847;28;20080;-67
2022/03/24 03:52:56;;;;;;;14.02;6.75;;;;;;;-148.16;100.00;58328.31;5017044;28;20041;-66
2022/03/24 03:55:43;;;;;;;12.70;6.55;;;;;;;-148.16;100.00;58328.31;5017040;28;20049;-64
2022/03/24 03:58:28;;;;;;;13.45;7.20;;;;;;;-148.16;100.00;58328.31;5032693;28;20045;-66
2022/03/24 04:01:14;;;;;;;12.25;7.57;;;;;;;-148.16;100.00;58328.31;5033781;28;20041;-65
2022/03/24 04:04:00;;;;;;;15.25;7.55;;;;;;;-148.16;100.00;58328.31;5035976;28;20381;-65
2022/03/24 04:06:45;;;;;;;15.07;8.35;;;;;;;-148.16;100.00;58328.31;5031978;28;20118;-65
2022/03/24 04:09:31;;;;;;;15.63;8.02;;;;;;;-148.16;100.00;58328.31;5030821;28;20041;-65
2022/03/24 04:12:15;;;;;;;13.75;7.45;;;;;;;-148.16;100.00;58328.31;5033427;28;20045;-64
2022/03/24 04:15:00;;;;;;;13.27;7.32;;;;;;;-148.16;100.00;58328.31;5030363;28;20045;-65
2022/03/24 04:17:45;;;;;;;12.98;7.93;;;;;;;-148.16;100.00;58328.31;5031888;28;20481;-62
2022/03/24 04:20:30;;;;;;;14.48;7.40;;;;;;;-148.16;100.00;58328.31;5032670;28;20577;-64
2022/03/24 04:23:16;;;;;;;19.48;7.65;;;;;;;-148.16;100.00;58328.31;5031928;28;20041;-64
2022/03/24 04:26:01;;;;;;;14.68;7.85;;;;;;;-148.16;100.00;58328.31;5045954;28;20041;-65
2022/03/24 04:28:45;;;;;;;12.48;7.00;;;;;;;-148.16;100.00;58328.31;5033511;28;20056;-65
2022/03/24 04:31:31;;;;;;;13.48;7.93;;;;;;;-148.16;100.00;58328.31;5031178;28;20049;-63
2022/03/24 04:34:16;;;;;;;15.23;7.20;;;;;;;-148.16;100.00;58328.31;5031866;28;20132;-63
2022/03/24 04:37:02;;;;;;;16.48;7.20;;;;;;;-148.16;100.00;58328.31;5043787;28;20127;-61
2022/03/24 04:39:47;;;;;;;14.50;6.93;;;;;;;-148.16;100.00;58328.31;5036656;28;20530;-65
2022/03/24 04:42:33;;;;;;;12.35;6.45;;;;;;;-148.16;100.00;58328.31;5057895;28;20052;-65
2022/03/24 04:45:20;;;;;;;14.93;6.20;;;;;;;-148.16;100.00;58328.31;5064822;28;20041;-64
2022/03/24 04:48:05;;;;;;;10.65;7.00;;;;;;;-148.16;100.00;58328.31;5066421;28;20041;-65
2022/03/24 04:50:50;;;;;;;10.88;6.30;;;;;;;-148.16;100.00;58328.31;5052042;28;20507;-64
2022/03/24 04:53:35;;;;;;;14.27;7.18;;;;;;;-148.16;100.00;58328.31;5055558;28;20036;-62
2022/03/24 04:56:21;;;;;;;12.98;6.10;;;;;;;-148.16;100.00;58328.31;5070895;28;20044;-63
2022/03/24 04:59:06;;;;;;;15.25;5.95;;;;;;;-148.16;100.00;58328.31;5051414;28;20052;-67
2022/03/24 05:01:51;;;;;;;9.70;5.38;;;;;;;-148.16;100.00;58328.31;5053803;28;20195;-60
2022/03/24 05:04:37;;;;;;;9.25;5.22;;;;;;;-148.16;100.00;58328.31;5045870;28;20040;-67
2022/03/24 05:07:22;;;;;;;9.35;4.95;;;;;;;-148.16;100.00;58328.31;5040008;28;20037;-67
2022/03/24 05:10:07;;;;;;;8.75;5.10;;;;;;;-148.16;100.00;58328.31;5033362;28;20050;-65
2022/03/24 05:12:51;;;;;;;9.45;4.80;;;;;;;-148.16;100.00;58328.31;5030336;28;20095;-64
2022/03/24 05:15:38;;;;;;;11.00;5.50;;;;;;;-148.16;100.00;58328.31;5041375;28;20045;-64
2022/03/24 05:18:25;;;;;;;12.35;6.10;;;;;;;-148.16;100.00;58328.31;5022179;28;20048;-68
2022/03/24 05:21:11;;;;;;;9.93;3.88;;;;;;;-148.16;100.00;58328.31;5040243;28;20041;-64
2022/03/24 05:23:57;;;;;;;11.48;5.78;;;;;;;-148.16;100.00;58328.31;5054873;28;20041;-62
2022/03/24 05:26:43;;;;;;;11.48;4.45;;;;;;;-148.16;100.00;58328.31;5033416;28;20107;-63
2022/03/24 05:29:29;;;;;;;10.85;5.15;;;;;;;-148.16;100.00;58328.31;5019508;28;20051;-61
2022/03/24 05:32:14;;;;;;;11.27;4.00;;;;;;;-148.16;100.00;58328.31;5033595;28;20048;-59
2022/03/24 05:35:00;;;;;;;12.43;3.58;;;;;;;-148.16;100.00;58328.31;5034399;28;20041;-61
2022/03/24 05:37:46;;;;;;;9.25;3.95;;;;;;;-148.16;100.00;58328.31;5033800;28;20357;-64
2022/03/24 05:40:31;;;;;;;15.10;6.65;;;;;;;-148.16;100.00;58328.31;5035050;28;20124;-65
2022/03/24 05:43:17;;;;;;;13.50;7.18;;;;;;;-148.16;100.00;58328.31;5051619;28;20056;-63
2022/03/24 05:46:02;;;;;;;11.75;7.00;;;;;;;-148.16;100.00;58328.31;5045644;28;20045;-65
2022/03/24 05:48:46;;;;;;;14.68;7.55;;;;;;;-148.16;100.00;58328.31;5019888;28;20050;-63
2022/03/24 05:51:51;;;;;;;12.80;6.85;;;;;;;-148.16;100.00;58328.31;5030849;28;20061;-64
2022/03/24 05:54:37;;;;;;;15.02;7.07;;;;;;;-148.16;100.00;58328.31;5034570;28;20107;-63
2022/03/24 05:57:23;;;;;;;15.13;7.28;;;;;;;-148.16;100.00;58328.31;5034321;28;20053;-63
2022/03/24 06:00:09;;;;;;;21.10;9.25;;;;;;;-148.16;100.00;58328.31;5033792;28;20045;-65
2022/03/24 06:03:07;;;;;;;12.48;6.75;;;;;;;-148.16;100.00;58328.31;5033987;28;20060;-65
2022/03/24 06:05:53;;;;;;;12.80;7.13;;;;;;;-148.16;100.00;58328.31;5027147;28;20054;-64
2022/03/24 06:08:42;;;;;;;13.52;7.10;;;;;;;-148.16;100.00;58328.31;5013147;28;20069;-63
2022/03/24 06:11:27;;;;;;;13.73;6.63;;;;;;;-148.16;100.00;58328.31;5013432;28;20405;-66
2022/03/24 06:14:13;;;;;;;14.15;7.90;;;;;;;-148.16;100.00;58328.31;5012874;28;20053;-64
2022/03/24 06:16:58;;;;;;;20.48;10.15;;;;;;;-148.16;100.00;58328.31;5020798;28;20048;-61
2022/03/24 06:19:44;;;;;;;15.95;8.50;;;;;;;-148.16;100.00;58328.31;5037252;28;20056;-71
2022/03/24 06:22:31;;;;;;;18.05;9.05;;;;;;;-148.16;100.00;58328.31;5041285;28;20507;-68
2022/03/24 06:25:17;;;;;;;19.17;9.20;;;;;;;-148.16;100.00;58328.31;5018536;28;20068;-66
2022/03/24 06:28:02;;;;;;;16.70;8.20;;;;;;;-148.16;100.00;58328.31;5033828;28;20423;-66
2022/03/24 06:30:48;;;;;;;16.85;8.13;;;;;;;-148.16;100.00;58328.31;5033875;28;20065;-65
2022/03/24 06:33:34;;;;;;;14.95;7.63;;;;;;;-148.16;100.00;58328.31;5032286;28;20088;-66
2022/03/24 06:36:20;;;;;;;18.77;8.30;;;;;;;-148.16;100.00;58328.31;5019050;28;20508;-67
2022/03/24 06:39:05;;;;;;;17.73;8.68;;;;;;;-148.16;100.00;58328.31;5031954;28;20120;-68
2022/03/24 06:41:50;;;;;;;15.15;8.32;;;;;;;-148.16;100.00;58328.31;5033367;28;20176;-72
2022/03/24 06:44:38;;;;;;;15.68;8.43;;;;;;;-148.16;100.00;58328.31;5032529;28;20068;-72
2022/03/24 06:47:23;;;;;;;14.18;7.13;;;;;;;-148.16;100.00;58328.31;5018706;28;20045;-73
2022/03/24 06:50:10;;;;;;;17.52;8.80;;;;;;;-148.16;100.00;58328.31;5032632;28;20061;-75
2022/03/24 06:52:56;;;;;;;17.88;8.45;;;;;;;-148.16;100.00;58328.31;5040706;28;20052;-72
2022/03/24 06:55:42;;;;;;;15.40;7.28;;;;;;;-148.16;100.00;58328.31;5034069;28;20045;-73
2022/03/24 06:58:28;;;;;;;13.82;7.82;;;;;;;-148.16;100.00;58328.31;5031571;28;20041;-70
2022/03/24 07:01:13;;;;;;;16.00;7.63;;;;;;;-148.16;100.00;58328.31;5032800;28;20041;-69
2022/03/24 07:03:59;;;;;;;19.67;7.40;;;;;;;-148.16;100.00;58328.31;5017809;28;20485;-68
2022/03/24 07:06:44;;;;;;;19.15;8.48;;;;;;;-148.16;100.00;58328.31;5032321;28;20045;-72
2022/03/24 07:09:29;;;;;;;19.40;8.93;;;;;;;-148.16;100.00;58328.31;5029241;28;20114;-74
2022/03/24 07:12:23;;;;;;;17.05;8.32;;;;;;;-148.16;100.00;58328.31;5065947;28;20072;-73
2022/03/24 07:15:11;;;;;;;12.20;7.57;;;;;;;-148.16;100.00;58328.31;5065076;28;20440;-73
2022/03/24 07:17:56;;;;;;;16.10;8.13;;;;;;;-148.16;100.00;58328.31;5051715;28;20059;-74
2022/03/24 07:20:42;;;;;;;14.07;7.13;;;;;;;-148.16;100.00;58328.31;5065847;28;20036;-73
2022/03/24 07:23:29;;;;;;;13.05;7.85;;;;;;;-148.16;100.00;58328.31;5053013;28;20045;-74
2022/03/24 07:26:14;;;;;;;17.20;6.45;;;;;;;-148.16;100.00;58328.31;5051634;28;20139;-73
2022/03/24 07:29:00;;;;;;;17.80;7.80;;;;;;;-148.16;100.00;58328.31;5052161;28;20477;-74
2022/03/24 07:31:44;;;;;;;14.00;7.80;;;;;;;-148.16;100.00;58328.31;5079180;28;20044;-74
2022/03/24 07:34:30;;;;;;;12.90;7.45;;;;;;;-148.16;100.00;58328.31;5052789;28;20102;-73
2022/03/24 07:37:15;;;;;;;10.60;6.60;;;;;;;-148.16;100.00;58328.31;5052487;28;20124;-73
2022/03/24 07:40:02;;;;;;;12.23;6.88;;;;;;;-148.16;100.00;58328.31;5052460;28;20041;-74
2022/03/24 07:42:56;;;;;;;11.80;6.80;;;;;;;-148.16;100.00;58328.31;5051553;28;20052;-74
2022/03/24 07:45:41;;;;;;;14.05;7.53;;;;;;;-148.16;100.00;58328.31;5065679;28;20041;-73
2022/03/24 07:48:27;;;;;;;13.88;6.78;;;;;;;-148.16;100.00;58328.31;5052871;28;20052;-74
2022/03/24 07:51:15;;;;;;;12.35;7.38;;;;;;;-148.16;100.00;58328.31;5052739;28;20049;-73
2022/03/24 07:54:03;;;;;;;11.50;6.60;;;;;;;-148.16;100.00;58328.31;5065163;28;20045;-72
2022/03/24 07:56:48;;;;;;;12.38;6.65;;;;;;;-148.16;100.00;58328.31;5052979;28;20079;-73
2022/03/24 07:59:34;;;;;;;9.82;5.65;;;;;;;-148.16;100.00;58328.31;5064852;28;20377;-73
2022/03/24 08:02:19;;;;;;;11.40;6.68;;;;;;;-148.16;100.00;58328.31;5052151;28;20052;-73
2022/03/24 08:05:08;;;;;;;12.65;6.75;;;;;;;-148.16;100.00;58328.31;5042583;28;20049;-73
2022/03/24 08:07:56;;;;;;;8.65;5.18;;;;;;;-148.16;100.00;58328.31;5020929;28;20068;-73
2022/03/24 08:10:44;;;;;;;10.25;6.05;;;;;;;-148.16;100.00;58328.31;5028448;28;20045;-72
2022/03/24 08:13:30;;;;;;;10.45;6.60;;;;;;;-148.16;100.00;58328.31;5017447;28;20053;-73
2022/03/24 08:16:17;;;;;;;12.05;6.38;;;;;;;-148.16;100.00;58328.31;5031185;28;20049;-72
2022/03/24 08:19:03;;;;;;;11.93;6.65;;;;;;;-148.16;100.00;58328.31;5030524;28;20052;-72
2022/03/24 08:21:49;;;;;;;11.90;6.85;;;;;;;-148.16;100.00;58328.31;5030695;28;20045;-73
2022/03/24 08:24:35;;;;;;;9.00;5.63;;;;;;;-148.16;100.00;58328.31;5003888;28;20199;-73
2022/03/24 08:27:22;;;;;;;10.27;6.25;;;;;;;-148.16;100.00;58328.31;5031613;28;20129;-73
2022/03/24 08:30:12;;;;;;;14.15;6.88;;;;;;;-148.16;100.00;58328.31;5030693;28;20053;-73
2022/03/24 08:32:58;;;;;;;15.68;8.15;;;;;;;-148.16;100.00;58328.31;5016550;28;20408;-73
2022/03/24 08:35:47;;;;;;;10.82;6.45;;;;;;;-148.16;100.00;58328.31;5031873;28;20045;-74
2022/03/24 08:38:34;;;;;;;11.13;7.60;;;;;;;-148.16;100.00;58328.31;5030399;28;20112;-74
2022/03/24 08:41:19;;;;;;;11.18;6.93;;;;;;;-148.16;100.00;58328.31;5030594;28;20057;-72
2022/03/24 08:44:05;;;;;;;13.77;7.53;;;;;;;-148.16;100.00;58328.31;5030246;28;20493;-72
2022/03/24 08:46:50;;;;;;;9.95;6.05;;;;;;;-148.16;100.00;58328.31;5016705;28;20408;-73
2022/03/24 08:49:35;;;;;;;15.68;7.50;;;;;;;-148.16;100.00;58328.31;5031751;28;20052;-72
2022/03/24 08:52:22;;;;;;;14.70;7.53;;;;;;;-148.16;100.00;58328.31;5031622;28;20041;-74
2022/03/24 08:55:09;;;;;;;12.80;7.22;;;;;;;-148.16;100.00;58328.31;5034397;28;20469;-73
2022/03/24 08:57:54;;;;;;;12.30;5.80;;;;;;;-148.16;100.00;58328.31;5031554;28;20116;-73
2022/03/24 09:00:39;;;;;;;15.32;7.97;;;;;;;-148.16;100.00;58328.31;5031245;28;20111;-73
2022/03/24 09:03:24;;;;;;;13.15;7.88;;;;;;;-148.16;100.00;58328.31;5031340;28;20505;-73
2022/03/24 09:06:09;;;;;;;9.88;6.10;;;;;;;-148.16;100.00;58328.31;5029953;28;20064;-73
2022/03/24 09:08:54;;;;;;;11.63;6.50;;;;;;;-148.16;100.00;58328.31;5029813;28;20049;-73
2022/03/24 09:11:41;;;;;;;14.68;8.20;;;;;;;-148.16;100.00;58328.31;5030184;28;20444;-73
2022/03/24 09:14:26;;;;;;;14.77;8.10;;;;;;;-148.16;100.00;58328.31;5015796;28;20057;-73
2022/03/24 09:17:11;;;;;;;14.00;7.78;;;;;;;-148.16;100.00;58328.31;5016032;28;20049;-73
2022/03/24 09:19:56;;;;;;;11.48;6.78;;;;;;;-148.16;100.00;58328.31;5030040;28;20444;-73
2022/03/24 09:22:44;;;;;;;15.00;7.88;;;;;;;-148.16;100.00;58328.31;5031061;28;20046;-73
2022/03/24 09:25:28;;;;;;;11.45;7.63;;;;;;;-148.16;100.00;58328.31;5029835;28;20400;-73
2022/03/24 09:28:22;;;;;;;10.30;5.45;;;;;;;-148.16;100.00;58328.31;5029820;28;20046;-73
2022/03/24 09:31:07;;;;;;;13.93;6.97;;;;;;;-148.16;100.00;58328.31;5029878;28;20492;-73
2022/03/24 09:33:53;;;;;;;14.48;7.85;;;;;;;-148.16;100.00;58328.31;5030790;28;20414;-73
2022/03/24 09:36:39;;;;;;;9.77;6.63;;;;;;;-148.16;100.00;58328.31;5016119;28;20041;-73
2022/03/24 09:39:26;;;;;;;15.05;7.28;;;;;;;-148.16;100.00;58328.31;5029589;28;20076;-73
2022/03/24 09:42:11;;;;;;;16.73;7.28;;;;;;;-148.16;100.00;58328.31;5029451;28;20050;-74
2022/03/24 09:44:58;;;;;;;12.20;6.82;;;;;;;-148.16;100.00;58328.31;5030558;28;20224;-73
2022/03/24 09:47:43;;;;;;;12.98;7.93;;;;;;;-148.16;100.00;58328.31;5031072;28;20065;-73
2022/03/24 09:50:32;;;;;;;11.88;6.63;;;;;;;-148.16;100.00;58328.31;5031006;28;20053;-73
2022/03/24 09:53:18;;;;;;;12.18;7.20;;;;;;;-148.16;100.00;58328.31;5030146;28;20075;-74
2022/03/24 09:56:04;;;;;;;11.68;7.20;;;;;;;-148.16;100.00;58328.31;5047515;28;20042;-74
2022/03/24 09:58:50;;;;;;;14.05;7.75;;;;;;;-148.16;100.00;58328.31;5034218;28;20057;-73
2022/03/24 10:01:39;;;;;;;14.50;7.32;;;;;;;-148.16;100.00;58328.31;5034722;28;20058;-73
2022/03/24 10:04:23;;;;;;;12.43;7.55;;;;;;;-148.16;100.00;58328.31;5033794;28;20045;-74
2022/03/24 10:07:11;;;;;;;10.60;6.60;;;;;;;-148.16;100.00;58328.31;5020397;28;20059;-72
2022/03/24 10:09:58;;;;;;;12.05;7.22;;;;;;;-148.16;100.00;58328.31;5039373;28;20108;-73
2022/03/24 10:12:45;;;;;;;13.20;7.57;;;;;;;-148.16;100.00;58328.31;5043148;28;20044;-75
2022/03/24 10:15:31;;;;;;;13.55;6.78;;;;;;;-148.16;100.00;58328.31;5041248;28;20052;-73
2022/03/24 10:18:16;;;;;;;10.10;6.60;;;;;;;-148.16;100.00;58328.31;5037559;28;20052;-73
2022/03/24 10:21:05;;;;;;;11.85;7.03;;;;;;;-148.16;100.00;58328.31;5042413;28;20056;-74
2022/03/24 10:23:51;;;;;;;12.63;6.65;;;;;;;-148.16;100.00;58328.31;5049971;28;20041;-74
2022/03/24 10:26:50;;;;;;;11.23;7.43;;;;;;;-148.16;100.00;58328.31;5050498;28;20080;-73
2022/03/24 10:29:36;;;;;;;11.68;6.10;;;;;;;-148.16;100.00;58328.31;5050753;28;20056;-73
2022/03/24 10:32:25;;;;;;;12.63;5.82;;;;;;;-148.16;100.00;58328.31;5035621;28;20073;-73
2022/03/24 10:35:13;;;;;;;11.30;5.88;;;;;;;-148.16;100.00;58328.31;5032574;28;20103;-73
2022/03/24 10:37:59;;;;;;;11.30;6.78;;;;;;;-148.16;100.00;58328.31;5032899;28;20049;-73
2022/03/24 10:40:44;;;;;;;14.25;7.68;;;;;;;-148.16;100.00;58328.31;5034012;28;20104;-73
2022/03/24 10:43:35;;;;;;;11.30;7.95;;;;;;;-148.16;100.00;58328.31;5018545;28;20489;-73
2022/03/24 10:46:25;;;;;;;11.45;6.63;;;;;;;-148.16;100.00;58328.31;5060446;28;20049;-73
2022/03/24 10:49:29;;;;;;;;;;;;;;;-148.16;100.00;58328.31;5033993;28;20041;-73
2022/03/24 10:52:20;;;;;;;12.98;7.25;;;;;;;-148.16;100.00;58328.31;5060559;28;19921;-73
2022/03/24 10:55:06;;;;;;;10.52;6.65;;;;;;;-148.16;100.00;58328.31;5035256;28;20069;-75
2022/03/24 10:57:52;;;;;;;8.70;6.35;;;;;;;-148.16;100.00;58328.31;5046737;28;20092;-74
2022/03/24 11:00:39;;;;;;;10.18;6.43;;;;;;;-148.16;100.00;58328.31;5060345;28;20069;-76
2022/03/24 11:03:25;;;;;;;9.52;5.45;;;;;;;-148.16;100.00;58328.31;5033627;28;20041;-77
2022/03/24 11:06:17;;;;;;;13.52;7.20;;;;;;;-148.16;100.00;58328.31;5033282;28;20042;-75
2022/03/24 11:09:03;;;;;;;13.60;8.27;;;;;;;-148.16;100.00;58328.31;5021338;28;20049;-76
2022/03/24 11:11:48;;;;;;;12.00;6.47;;;;;;;-148.16;100.00;58328.31;5035998;28;20178;-75
2022/03/24 11:14:40;;;;;;;10.27;6.13;;;;;;;-148.16;100.00;58328.31;5033963;28;20199;-75
2022/03/24 11:17:28;;;;;;;11.25;7.82;;;;;;;-148.16;100.00;58328.31;5051148;28;20065;-76
2022/03/24 11:20:36;;;;;;;13.30;8.95;;;;;;;-148.16;100.00;58328.31;5045563;28;20041;-76
2022/03/24 11:23:22;;;;;;;12.65;6.38;;;;;;;-148.16;100.00;58328.31;5032965;28;20041;-76
2022/03/24 11:26:10;;;;;;;8.43;5.97;;;;;;;-148.16;100.00;58328.31;5031879;28;20046;-76
2022/03/24 11:28:57;;;;;;;12.43;7.82;;;;;;;-148.16;100.00;58328.31;5031588;28;20049;-76
2022/03/24 11:31:45;;;;;;;8.52;5.03;;;;;;;-148.16;100.00;58328.31;5031764;28;20491;-77
2022/03/24 11:34:31;;;;;;;12.88;6.80;;;;;;;-148.16;100.00;58328.31;5032845;28;20179;-76
2022/03/24 11:37:15;;;;;;;11.23;7.03;;;;;;;-148.16;100.00;58328.31;5031509;28;20477;-75
2022/03/24 11:40:11;;;;;;;9.07;6.15;;;;;;;-148.16;100.00;58328.31;5031384;28;20140;-75
2022/03/24 11:43:09;;;;;;;11.20;7.47;;;;;;;-148.16;100.00;58328.31;5031180;28;20495;-75
2022/03/24 11:46:02;;;;;;;11.98;8.40;;;;;;;-148.16;100.00;58328.31;5045027;28;20069;-75
2022/03/24 11:48:48;;;;;;;11.77;7.07;;;;;;;-148.16;100.00;58328.31;5045448;28;20428;-74
2022/03/24 11:51:32;;;;;;;12.63;8.05;;;;;;;-148.16;100.00;58328.31;5031082;28;20046;-75
2022/03/24 11:54:30;;;;;;;8.82;6.07;;;;;;;-148.16;100.00;58328.31;5032134;28;20041;-74
2022/03/24 11:57:29;;;;;;;11.73;7.80;;;;;;;-148.16;100.00;58328.31;5031912;28;20511;-74
2022/03/24 12:00:15;;;;;;;11.27;7.60;;;;;;;-148.16;100.00;58328.31;5017003;28;20427;-74
2022/03/24 12:03:01;;;;;;;12.00;7.25;;;;;;;-148.16;100.00;58328.31;5030605;28;20448;-75
2022/03/24 12:05:53;;;;;;;11.45;7.70;;;;;;;-148.16;100.00;58328.31;5032113;28;20339;-74
2022/03/24 12:09:03;;;;;;;11.75;7.53;;;;;;;-148.16;100.00;58328.31;5016846;28;20033;-74
2022/03/24 12:12:10;;;;;;;10.75;6.40;;;;;;;-148.16;100.00;58328.31;5031936;28;20041;-75
2022/03/24 12:14:58;;;;;;;11.40;6.75;;;;;;;-148.16;100.00;58328.31;5031894;28;20049;-75
2022/03/24 12:18:18;;;;;;;12.73;8.50;;;;;;;-148.16;100.00;58328.31;5030386;28;20091;-75
2022/03/24 12:21:05;;;;;;;11.88;7.68;;;;;;;-148.16;100.00;58328.31;5028535;28;20088;-75
2022/03/24 12:24:08;;;;;;;9.57;7.30;;;;;;;-148.16;100.00;58328.31;5031855;28;20416;-74
2022/03/24 12:26:59;;;;;;;13.57;7.25;;;;;;;-148.16;100.00;58328.31;5030315;28;20045;-75
2022/03/24 12:30:10;;;;;;;9.75;5.57;;;;;;;-148.16;100.00;58328.31;5031584;28;20041;-75